sensor_id;sensor_type;location;lat;lon;timestamp;P1;durP1;ratioP1;P2;durP2;ratioP2
68806;SDS011;55800;54.272;18.558;2024-03-02T00:01:35;58.45;;;30.75;;
68806;SDS011;55800;54.272;18.558;2024-03-02T00:04:05;61.22;;;32.92;;
68806;SDS011;55800;54.272;18.558;2024-03-02T00:06:35;60.03;;;34.15;;
68806;SDS011;55800;54.272;18.558;2024-03-02T00:09:05;59.53;;;32.45;;
68806;SDS011;55800;54.272;18.558;2024-03-02T00:11:39;59.38;;;33.50;;
68806;SDS011;55800;54.272;18.558;2024-03-02T00:14:11;54.03;;;30.98;;
68806;SDS011;55800;54.272;18.558;2024-03-02T00:16:41;55.28;;;32.28;;
68806;SDS011;55800;54.272;18.558;2024-03-02T00:19:11;53.25;;;30.92;;
68806;SDS011;55800;54.272;18.558;2024-03-02T00:21:41;64.55;;;31.75;;
68806;SDS011;55800;54.272;18.558;2024-03-02T00:24:17;62.85;;;31.02;;
68806;SDS011;55800;54.272;18.558;2024-03-02T00:26:52;53.38;;;29.73;;
68806;SDS011;55800;54.272;18.558;2024-03-02T00:31:52;56.47;;;29.73;;
68806;SDS011;55800;54.272;18.558;2024-03-02T00:34:22;54.95;;;30.98;;
68806;SDS011;55800;54.272;18.558;2024-03-02T00:36:52;52.03;;;29.33;;
68806;SDS011;55800;54.272;18.558;2024-03-02T00:39:27;56.60;;;30.73;;
68806;SDS011;55800;54.272;18.558;2024-03-02T00:41:57;54.90;;;29.98;;
68806;SDS011;55800;54.272;18.558;2024-03-02T00:44:28;52.67;;;30.08;;
68806;SDS011;55800;54.272;18.558;2024-03-02T00:47:02;58.70;;;30.83;;
68806;SDS011;55800;54.272;18.558;2024-03-02T00:52:04;49.45;;;29.33;;
68806;SDS011;55800;54.272;18.558;2024-03-02T00:54:35;51.38;;;27.45;;
68806;SDS011;55800;54.272;18.558;2024-03-02T00:57:04;52.88;;;29.92;;
68806;SDS011;55800;54.272;18.558;2024-03-02T00:59:35;48.47;;;27.17;;
68806;SDS011;55800;54.272;18.558;2024-03-02T01:02:05;50.65;;;29.67;;
68806;SDS011;55800;54.272;18.558;2024-03-02T01:07:03;53.60;;;31.02;;
68806;SDS011;55800;54.272;18.558;2024-03-02T01:09:33;55.72;;;29.23;;
68806;SDS011;55800;54.272;18.558;2024-03-02T01:12:03;51.45;;;29.30;;
68806;SDS011;55800;54.272;18.558;2024-03-02T01:14:33;53.25;;;27.65;;
68806;SDS011;55800;54.272;18.558;2024-03-02T01:17:03;53.83;;;28.25;;
68806;SDS011;55800;54.272;18.558;2024-03-02T01:19:33;55.55;;;29.83;;
68806;SDS011;55800;54.272;18.558;2024-03-02T01:24:32;54.92;;;30.08;;
68806;SDS011;55800;54.272;18.558;2024-03-02T01:27:02;54.35;;;29.00;;
68806;SDS011;55800;54.272;18.558;2024-03-02T01:29:31;54.78;;;30.30;;
68806;SDS011;55800;54.272;18.558;2024-03-02T01:32:02;56.47;;;31.92;;
68806;SDS011;55800;54.272;18.558;2024-03-02T01:34:32;57.53;;;31.17;;
68806;SDS011;55800;54.272;18.558;2024-03-02T01:37:02;58.50;;;29.65;;
68806;SDS011;55800;54.272;18.558;2024-03-02T01:42:00;53.17;;;29.50;;
68806;SDS011;55800;54.272;18.558;2024-03-02T01:44:30;51.90;;;28.33;;
68806;SDS011;55800;54.272;18.558;2024-03-02T01:47:00;52.22;;;29.65;;
68806;SDS011;55800;54.272;18.558;2024-03-02T01:49:31;58.22;;;29.20;;
68806;SDS011;55800;54.272;18.558;2024-03-02T01:52:01;53.83;;;31.27;;
68806;SDS011;55800;54.272;18.558;2024-03-02T01:57:00;54.78;;;27.85;;
68806;SDS011;55800;54.272;18.558;2024-03-02T01:59:30;57.70;;;32.15;;
68806;SDS011;55800;54.272;18.558;2024-03-02T02:01:59;58.03;;;29.65;;
68806;SDS011;55800;54.272;18.558;2024-03-02T02:04:30;57.28;;;30.42;;
68806;SDS011;55800;54.272;18.558;2024-03-02T02:06:59;56.33;;;29.27;;
68806;SDS011;55800;54.272;18.558;2024-03-02T02:11:58;55.15;;;29.45;;
68806;SDS011;55800;54.272;18.558;2024-03-02T02:14:28;47.90;;;29.58;;
68806;SDS011;55800;54.272;18.558;2024-03-02T02:16:57;60.45;;;32.35;;
68806;SDS011;55800;54.272;18.558;2024-03-02T02:19:28;58.90;;;30.17;;
68806;SDS011;55800;54.272;18.558;2024-03-02T02:21:59;56.30;;;28.48;;
68806;SDS011;55800;54.272;18.558;2024-03-02T02:24:29;54.30;;;31.02;;
68806;SDS011;55800;54.272;18.558;2024-03-02T02:26:58;49.10;;;29.02;;
68806;SDS011;55800;54.272;18.558;2024-03-02T02:29:28;56.15;;;30.70;;
68806;SDS011;55800;54.272;18.558;2024-03-02T02:31:57;59.08;;;31.60;;
68806;SDS011;55800;54.272;18.558;2024-03-02T02:36:56;42.15;;;25.27;;
68806;SDS011;55800;54.272;18.558;2024-03-02T02:39:27;49.65;;;28.50;;
68806;SDS011;55800;54.272;18.558;2024-03-02T02:41:56;56.92;;;29.60;;
68806;SDS011;55800;54.272;18.558;2024-03-02T02:44:28;56.92;;;29.05;;
68806;SDS011;55800;54.272;18.558;2024-03-02T02:46:57;46.78;;;30.15;;
68806;SDS011;55800;54.272;18.558;2024-03-02T02:51:56;51.22;;;28.77;;
68806;SDS011;55800;54.272;18.558;2024-03-02T02:54:27;54.90;;;30.48;;
68806;SDS011;55800;54.272;18.558;2024-03-02T02:56:56;56.67;;;30.77;;
68806;SDS011;55800;54.272;18.558;2024-03-02T02:59:26;49.38;;;28.90;;
68806;SDS011;55800;54.272;18.558;2024-03-02T03:01:55;50.92;;;27.42;;
68806;SDS011;55800;54.272;18.558;2024-03-02T03:04:25;53.50;;;28.73;;
68806;SDS011;55800;54.272;18.558;2024-03-02T03:06:54;57.00;;;29.52;;
68806;SDS011;55800;54.272;18.558;2024-03-02T03:09:25;59.75;;;30.30;;
68806;SDS011;55800;54.272;18.558;2024-03-02T03:11:55;54.90;;;31.23;;
68806;SDS011;55800;54.272;18.558;2024-03-02T03:14:24;60.63;;;31.35;;
68806;SDS011;55800;54.272;18.558;2024-03-02T03:16:54;55.25;;;29.30;;
68806;SDS011;55800;54.272;18.558;2024-03-02T03:19:23;53.58;;;32.38;;
68806;SDS011;55800;54.272;18.558;2024-03-02T03:21:53;54.05;;;29.05;;
68806;SDS011;55800;54.272;18.558;2024-03-02T03:26:53;55.08;;;28.95;;
68806;SDS011;55800;54.272;18.558;2024-03-02T03:29:23;61.90;;;30.75;;
68806;SDS011;55800;54.272;18.558;2024-03-02T03:31:52;55.30;;;30.50;;
68806;SDS011;55800;54.272;18.558;2024-03-02T03:34:21;49.88;;;29.20;;
68806;SDS011;55800;54.272;18.558;2024-03-02T03:36:51;56.28;;;30.42;;
68806;SDS011;55800;54.272;18.558;2024-03-02T03:41:50;55.45;;;27.98;;
68806;SDS011;55800;54.272;18.558;2024-03-02T03:46:50;57.85;;;30.17;;
68806;SDS011;55800;54.272;18.558;2024-03-02T03:51:48;54.88;;;29.55;;
68806;SDS011;55800;54.272;18.558;2024-03-02T03:56:47;54.30;;;31.40;;
68806;SDS011;55800;54.272;18.558;2024-03-02T03:59:17;53.70;;;29.25;;
68806;SDS011;55800;54.272;18.558;2024-03-02T04:01:47;61.33;;;31.60;;
68806;SDS011;55800;54.272;18.558;2024-03-02T04:04:17;55.72;;;31.08;;
68806;SDS011;55800;54.272;18.558;2024-03-02T04:06:46;55.92;;;30.13;;
68806;SDS011;55800;54.272;18.558;2024-03-02T04:09:16;49.28;;;28.23;;
68806;SDS011;55800;54.272;18.558;2024-03-02T04:11:45;57.03;;;31.05;;
68806;SDS011;55800;54.272;18.558;2024-03-02T04:16:44;56.80;;;30.05;;
68806;SDS011;55800;54.272;18.558;2024-03-02T04:21:44;61.60;;;31.25;;
68806;SDS011;55800;54.272;18.558;2024-03-02T04:26:43;52.97;;;29.70;;
68806;SDS011;55800;54.272;18.558;2024-03-02T04:29:12;53.80;;;30.10;;
68806;SDS011;55800;54.272;18.558;2024-03-02T04:31:42;64.15;;;32.40;;
68806;SDS011;55800;54.272;18.558;2024-03-02T04:36:42;49.10;;;28.23;;
68806;SDS011;55800;54.272;18.558;2024-03-02T04:39:11;52.55;;;30.73;;
68806;SDS011;55800;54.272;18.558;2024-03-02T04:41:41;61.42;;;32.17;;
68806;SDS011;55800;54.272;18.558;2024-03-02T04:44:10;60.80;;;34.88;;
68806;SDS011;55800;54.272;18.558;2024-03-02T04:49:09;53.40;;;29.45;;
68806;SDS011;55800;54.272;18.558;2024-03-02T04:54:09;58.83;;;30.17;;
68806;SDS011;55800;54.272;18.558;2024-03-02T04:56:41;61.13;;;31.38;;
68806;SDS011;55800;54.272;18.558;2024-03-02T04:59:17;52.05;;;31.10;;
68806;SDS011;55800;54.272;18.558;2024-03-02T05:01:46;61.95;;;33.58;;
68806;SDS011;55800;54.272;18.558;2024-03-02T05:04:16;62.35;;;32.05;;
68806;SDS011;55800;54.272;18.558;2024-03-02T05:06:46;56.72;;;30.85;;
68806;SDS011;55800;54.272;18.558;2024-03-02T05:09:21;65.93;;;34.13;;
68806;SDS011;55800;54.272;18.558;2024-03-02T05:11:51;60.35;;;30.52;;
68806;SDS011;55800;54.272;18.558;2024-03-02T05:14:56;59.03;;;34.20;;
68806;SDS011;55800;54.272;18.558;2024-03-02T05:17:25;54.72;;;30.73;;
68806;SDS011;55800;54.272;18.558;2024-03-02T05:19:55;54.42;;;31.27;;
68806;SDS011;55800;54.272;18.558;2024-03-02T05:22:25;57.50;;;28.83;;
68806;SDS011;55800;54.272;18.558;2024-03-02T05:24:55;58.80;;;33.80;;
68806;SDS011;55800;54.272;18.558;2024-03-02T05:27:26;56.00;;;31.67;;
68806;SDS011;55800;54.272;18.558;2024-03-02T05:32:25;52.33;;;28.10;;
68806;SDS011;55800;54.272;18.558;2024-03-02T05:34:54;59.30;;;32.00;;
68806;SDS011;55800;54.272;18.558;2024-03-02T05:39:53;54.35;;;29.00;;
68806;SDS011;55800;54.272;18.558;2024-03-02T05:42:24;60.92;;;32.08;;
68806;SDS011;55800;54.272;18.558;2024-03-02T05:44:54;64.80;;;34.67;;
68806;SDS011;55800;54.272;18.558;2024-03-02T05:47:24;59.67;;;31.30;;
68806;SDS011;55800;54.272;18.558;2024-03-02T05:49:54;60.90;;;32.50;;
68806;SDS011;55800;54.272;18.558;2024-03-02T05:54:53;61.20;;;30.20;;
68806;SDS011;55800;54.272;18.558;2024-03-02T05:57:24;64.65;;;33.92;;
68806;SDS011;55800;54.272;18.558;2024-03-02T06:00:12;64.53;;;31.52;;
68806;SDS011;55800;54.272;18.558;2024-03-02T06:02:44;64.57;;;33.78;;
68806;SDS011;55800;54.272;18.558;2024-03-02T06:05:14;60.78;;;32.55;;
68806;SDS011;55800;54.272;18.558;2024-03-02T06:07:44;62.20;;;32.83;;
68806;SDS011;55800;54.272;18.558;2024-03-02T06:10:15;58.78;;;31.33;;
68806;SDS011;55800;54.272;18.558;2024-03-02T06:12:44;57.35;;;31.70;;
68806;SDS011;55800;54.272;18.558;2024-03-02T06:15:14;55.38;;;31.05;;
68806;SDS011;55800;54.272;18.558;2024-03-02T06:17:44;61.45;;;29.83;;
68806;SDS011;55800;54.272;18.558;2024-03-02T06:20:13;56.97;;;31.27;;
68806;SDS011;55800;54.272;18.558;2024-03-02T06:22:43;62.33;;;31.63;;
68806;SDS011;55800;54.272;18.558;2024-03-02T06:25:12;60.50;;;32.97;;
68806;SDS011;55800;54.272;18.558;2024-03-02T06:27:43;60.83;;;32.03;;
68806;SDS011;55800;54.272;18.558;2024-03-02T06:30:13;68.97;;;30.80;;
68806;SDS011;55800;54.272;18.558;2024-03-02T06:32:43;62.75;;;32.65;;
68806;SDS011;55800;54.272;18.558;2024-03-02T06:35:12;61.47;;;32.13;;
68806;SDS011;55800;54.272;18.558;2024-03-02T06:37:42;66.53;;;33.38;;
68806;SDS011;55800;54.272;18.558;2024-03-02T06:40:11;60.70;;;33.60;;
68806;SDS011;55800;54.272;18.558;2024-03-02T06:45:12;64.97;;;31.73;;
68806;SDS011;55800;54.272;18.558;2024-03-02T06:50:10;59.05;;;33.10;;
68806;SDS011;55800;54.272;18.558;2024-03-02T06:52:40;60.75;;;33.55;;
68806;SDS011;55800;54.272;18.558;2024-03-02T06:55:10;75.53;;;35.13;;
68806;SDS011;55800;54.272;18.558;2024-03-02T06:57:40;66.05;;;33.20;;
68806;SDS011;55800;54.272;18.558;2024-03-02T07:00:11;62.55;;;33.40;;
68806;SDS011;55800;54.272;18.558;2024-03-02T07:02:41;68.57;;;34.30;;
68806;SDS011;55800;54.272;18.558;2024-03-02T07:05:11;61.50;;;34.88;;
68806;SDS011;55800;54.272;18.558;2024-03-02T07:10:10;63.63;;;32.88;;
68806;SDS011;55800;54.272;18.558;2024-03-02T07:15:09;76.25;;;34.53;;
68806;SDS011;55800;54.272;18.558;2024-03-02T07:17:56;68.95;;;32.50;;
68806;SDS011;55800;54.272;18.558;2024-03-02T07:20:25;60.97;;;33.58;;
68806;SDS011;55800;54.272;18.558;2024-03-02T07:22:55;64.70;;;34.20;;
68806;SDS011;55800;54.272;18.558;2024-03-02T07:25:25;61.28;;;31.98;;
68806;SDS011;55800;54.272;18.558;2024-03-02T07:27:57;70.38;;;35.67;;
68806;SDS011;55800;54.272;18.558;2024-03-02T07:30:28;67.93;;;33.67;;
68806;SDS011;55800;54.272;18.558;2024-03-02T07:33:00;68.20;;;33.65;;
68806;SDS011;55800;54.272;18.558;2024-03-02T07:35:29;74.15;;;34.15;;
68806;SDS011;55800;54.272;18.558;2024-03-02T07:37:59;66.55;;;35.63;;
68806;SDS011;55800;54.272;18.558;2024-03-02T07:40:29;63.78;;;33.15;;
68806;SDS011;55800;54.272;18.558;2024-03-02T07:45:29;62.78;;;31.35;;
68806;SDS011;55800;54.272;18.558;2024-03-02T07:47:59;63.95;;;33.42;;
68806;SDS011;55800;54.272;18.558;2024-03-02T07:50:28;59.92;;;32.80;;
68806;SDS011;55800;54.272;18.558;2024-03-02T07:52:58;63.15;;;34.15;;
68806;SDS011;55800;54.272;18.558;2024-03-02T07:55:27;65.95;;;34.83;;
68806;SDS011;55800;54.272;18.558;2024-03-02T08:00:26;57.85;;;32.55;;
68806;SDS011;55800;54.272;18.558;2024-03-02T08:02:58;59.45;;;32.58;;
68806;SDS011;55800;54.272;18.558;2024-03-02T08:05:28;60.65;;;32.83;;
68806;SDS011;55800;54.272;18.558;2024-03-02T08:07:58;58.65;;;33.17;;
68806;SDS011;55800;54.272;18.558;2024-03-02T08:10:28;65.38;;;33.92;;
68806;SDS011;55800;54.272;18.558;2024-03-02T08:12:57;66.15;;;34.90;;
68806;SDS011;55800;54.272;18.558;2024-03-02T08:15:27;63.72;;;31.38;;
68806;SDS011;55800;54.272;18.558;2024-03-02T08:17:58;63.10;;;33.60;;
68806;SDS011;55800;54.272;18.558;2024-03-02T08:20:27;68.55;;;32.53;;
68806;SDS011;55800;54.272;18.558;2024-03-02T08:22:58;60.85;;;35.20;;
68806;SDS011;55800;54.272;18.558;2024-03-02T08:25:28;68.30;;;34.53;;
68806;SDS011;55800;54.272;18.558;2024-03-02T08:27:58;60.35;;;33.63;;
68806;SDS011;55800;54.272;18.558;2024-03-02T08:30:29;62.45;;;32.83;;
68806;SDS011;55800;54.272;18.558;2024-03-02T08:32:59;71.10;;;30.85;;
68806;SDS011;55800;54.272;18.558;2024-03-02T08:35:28;60.97;;;33.88;;
68806;SDS011;55800;54.272;18.558;2024-03-02T08:38:03;49.97;;;28.42;;
68806;SDS011;55800;54.272;18.558;2024-03-02T08:40:32;66.20;;;32.33;;
68806;SDS011;55800;54.272;18.558;2024-03-02T08:43:02;73.10;;;34.33;;
68806;SDS011;55800;54.272;18.558;2024-03-02T08:45:33;63.05;;;32.28;;
68806;SDS011;55800;54.272;18.558;2024-03-02T08:48:03;64.43;;;32.45;;
68806;SDS011;55800;54.272;18.558;2024-03-02T08:50:34;64.75;;;32.75;;
68806;SDS011;55800;54.272;18.558;2024-03-02T08:55:32;66.07;;;34.97;;
68806;SDS011;55800;54.272;18.558;2024-03-02T08:58:02;70.50;;;32.28;;
68806;SDS011;55800;54.272;18.558;2024-03-02T09:00:34;56.47;;;31.58;;
68806;SDS011;55800;54.272;18.558;2024-03-02T09:03:04;65.93;;;32.10;;
68806;SDS011;55800;54.272;18.558;2024-03-02T09:08:03;58.03;;;29.92;;
68806;SDS011;55800;54.272;18.558;2024-03-02T09:10:33;59.38;;;33.55;;
68806;SDS011;55800;54.272;18.558;2024-03-02T09:13:03;64.88;;;33.10;;
68806;SDS011;55800;54.272;18.558;2024-03-02T09:18:06;65.97;;;33.95;;
68806;SDS011;55800;54.272;18.558;2024-03-02T09:20:35;62.00;;;31.70;;
68806;SDS011;55800;54.272;18.558;2024-03-02T09:25:34;64.72;;;32.58;;
68806;SDS011;55800;54.272;18.558;2024-03-02T09:28:04;60.92;;;32.72;;
68806;SDS011;55800;54.272;18.558;2024-03-02T09:30:36;68.22;;;36.55;;
68806;SDS011;55800;54.272;18.558;2024-03-02T09:33:05;58.92;;;37.00;;
68806;SDS011;55800;54.272;18.558;2024-03-02T09:35:37;71.10;;;36.05;;
68806;SDS011;55800;54.272;18.558;2024-03-02T09:38:07;60.90;;;33.30;;
68806;SDS011;55800;54.272;18.558;2024-03-02T09:40:36;56.67;;;32.53;;
68806;SDS011;55800;54.272;18.558;2024-03-02T09:45:37;63.28;;;31.92;;
68806;SDS011;55800;54.272;18.558;2024-03-02T09:48:07;64.57;;;33.78;;
68806;SDS011;55800;54.272;18.558;2024-03-02T09:50:36;63.75;;;33.53;;
68806;SDS011;55800;54.272;18.558;2024-03-02T09:53:06;63.88;;;33.88;;
68806;SDS011;55800;54.272;18.558;2024-03-02T09:55:36;59.85;;;33.03;;
68806;SDS011;55800;54.272;18.558;2024-03-02T09:58:10;57.97;;;32.22;;
68806;SDS011;55800;54.272;18.558;2024-03-02T10:00:40;59.70;;;33.17;;
68806;SDS011;55800;54.272;18.558;2024-03-02T10:03:11;56.53;;;32.13;;
68806;SDS011;55800;54.272;18.558;2024-03-02T10:05:41;61.90;;;32.15;;
68806;SDS011;55800;54.272;18.558;2024-03-02T10:08:11;58.88;;;32.65;;
68806;SDS011;55800;54.272;18.558;2024-03-02T10:10:41;58.90;;;30.55;;
68806;SDS011;55800;54.272;18.558;2024-03-02T10:13:11;58.88;;;31.52;;
68806;SDS011;55800;54.272;18.558;2024-03-02T10:15:43;58.45;;;30.65;;
68806;SDS011;55800;54.272;18.558;2024-03-02T10:18:14;51.42;;;28.42;;
68806;SDS011;55800;54.272;18.558;2024-03-02T10:20:55;65.30;;;34.33;;
68806;SDS011;55800;54.272;18.558;2024-03-02T10:23:41;52.35;;;29.52;;
68806;SDS011;55800;54.272;18.558;2024-03-02T10:26:12;55.88;;;31.45;;
68806;SDS011;55800;54.272;18.558;2024-03-02T10:28:46;59.80;;;31.23;;
68806;SDS011;55800;54.272;18.558;2024-03-02T10:31:18;53.80;;;31.75;;
68806;SDS011;55800;54.272;18.558;2024-03-02T10:33:54;57.25;;;30.65;;
68806;SDS011;55800;54.272;18.558;2024-03-02T10:36:24;49.22;;;29.48;;
68806;SDS011;55800;54.272;18.558;2024-03-02T10:38:55;55.55;;;30.65;;
68806;SDS011;55800;54.272;18.558;2024-03-02T10:41:26;49.60;;;27.80;;
68806;SDS011;55800;54.272;18.558;2024-03-02T10:43:58;53.05;;;28.13;;
68806;SDS011;55800;54.272;18.558;2024-03-02T10:46:32;53.40;;;30.95;;
68806;SDS011;55800;54.272;18.558;2024-03-02T10:49:03;47.80;;;27.08;;
68806;SDS011;55800;54.272;18.558;2024-03-02T10:51:35;53.75;;;28.15;;
68806;SDS011;55800;54.272;18.558;2024-03-02T10:54:05;52.88;;;29.77;;
68806;SDS011;55800;54.272;18.558;2024-03-02T10:56:37;59.40;;;30.17;;
68806;SDS011;55800;54.272;18.558;2024-03-02T10:59:11;54.75;;;29.65;;
68806;SDS011;55800;54.272;18.558;2024-03-02T11:01:48;50.00;;;29.35;;
68806;SDS011;55800;54.272;18.558;2024-03-02T11:04:22;49.10;;;29.10;;
68806;SDS011;55800;54.272;18.558;2024-03-02T11:06:56;50.75;;;27.98;;
68806;SDS011;55800;54.272;18.558;2024-03-02T11:09:32;47.50;;;28.17;;
68806;SDS011;55800;54.272;18.558;2024-03-02T11:12:06;44.13;;;28.35;;
68806;SDS011;55800;54.272;18.558;2024-03-02T11:14:41;51.90;;;28.65;;
68806;SDS011;55800;54.272;18.558;2024-03-02T11:19:44;52.00;;;30.05;;
68806;SDS011;55800;54.272;18.558;2024-03-02T11:22:14;54.20;;;30.27;;
68806;SDS011;55800;54.272;18.558;2024-03-02T11:24:47;52.53;;;26.92;;
68806;SDS011;55800;54.272;18.558;2024-03-02T11:33:26;48.25;;;28.55;;
68806;SDS011;55800;54.272;18.558;2024-03-02T11:35:58;47.05;;;26.25;;
68806;SDS011;55800;54.272;18.558;2024-03-02T11:38:30;48.90;;;28.25;;
68806;SDS011;55800;54.272;18.558;2024-03-02T11:41:01;55.72;;;29.33;;
68806;SDS011;55800;54.272;18.558;2024-03-02T11:43:36;49.97;;;30.17;;
68806;SDS011;55800;54.272;18.558;2024-03-02T11:46:07;42.50;;;26.20;;
68806;SDS011;55800;54.272;18.558;2024-03-02T11:48:39;57.47;;;28.83;;
68806;SDS011;55800;54.272;18.558;2024-03-02T11:51:08;54.25;;;28.52;;
68806;SDS011;55800;54.272;18.558;2024-03-02T11:53:39;51.65;;;27.92;;
68806;SDS011;55800;54.272;18.558;2024-03-02T11:56:10;44.53;;;28.13;;
68806;SDS011;55800;54.272;18.558;2024-03-02T11:58:42;45.80;;;27.80;;
68806;SDS011;55800;54.272;18.558;2024-03-02T12:01:13;48.20;;;30.15;;
68806;SDS011;55800;54.272;18.558;2024-03-02T12:06:14;54.28;;;27.35;;
68806;SDS011;55800;54.272;18.558;2024-03-02T12:08:46;49.95;;;27.30;;
68806;SDS011;55800;54.272;18.558;2024-03-02T12:11:20;46.20;;;27.63;;
68806;SDS011;55800;54.272;18.558;2024-03-02T12:13:51;50.88;;;27.38;;
68806;SDS011;55800;54.272;18.558;2024-03-02T12:16:24;46.55;;;27.77;;
68806;SDS011;55800;54.272;18.558;2024-03-02T12:18:55;47.33;;;29.73;;
68806;SDS011;55800;54.272;18.558;2024-03-02T12:21:25;48.10;;;26.75;;
68806;SDS011;55800;54.272;18.558;2024-03-02T12:23:55;50.20;;;28.75;;
68806;SDS011;55800;54.272;18.558;2024-03-02T12:26:25;52.72;;;30.83;;
68806;SDS011;55800;54.272;18.558;2024-03-02T12:28:54;53.33;;;30.42;;
68806;SDS011;55800;54.272;18.558;2024-03-02T12:31:24;52.83;;;29.38;;
68806;SDS011;55800;54.272;18.558;2024-03-02T12:33:54;56.13;;;30.73;;
68806;SDS011;55800;54.272;18.558;2024-03-02T12:36:25;49.10;;;29.60;;
68806;SDS011;55800;54.272;18.558;2024-03-02T12:38:55;51.75;;;32.92;;
68806;SDS011;55800;54.272;18.558;2024-03-02T12:43:56;51.45;;;29.05;;
68806;SDS011;55800;54.272;18.558;2024-03-02T12:46:25;51.92;;;30.02;;
68806;SDS011;55800;54.272;18.558;2024-03-02T12:51:26;52.97;;;34.10;;
68806;SDS011;55800;54.272;18.558;2024-03-02T12:56:25;53.83;;;28.40;;
68806;SDS011;55800;54.272;18.558;2024-03-02T12:58:55;56.33;;;32.33;;
68806;SDS011;55800;54.272;18.558;2024-03-02T13:01:26;53.88;;;30.35;;
68806;SDS011;55800;54.272;18.558;2024-03-02T13:03:56;54.13;;;32.17;;
68806;SDS011;55800;54.272;18.558;2024-03-02T13:06:27;53.40;;;28.38;;
68806;SDS011;55800;54.272;18.558;2024-03-02T13:11:26;52.50;;;31.10;;
68806;SDS011;55800;54.272;18.558;2024-03-02T13:13:55;59.30;;;29.33;;
68806;SDS011;55800;54.272;18.558;2024-03-02T13:19:03;54.17;;;27.58;;
68806;SDS011;55800;54.272;18.558;2024-03-02T13:21:35;48.55;;;28.98;;
68806;SDS011;55800;54.272;18.558;2024-03-02T13:24:05;49.65;;;30.27;;
68806;SDS011;55800;54.272;18.558;2024-03-02T13:26:36;49.30;;;28.75;;
68806;SDS011;55800;54.272;18.558;2024-03-02T13:29:06;51.83;;;27.95;;
68806;SDS011;55800;54.272;18.558;2024-03-02T13:31:36;46.40;;;28.35;;
68806;SDS011;55800;54.272;18.558;2024-03-02T13:34:08;49.17;;;28.60;;
68806;SDS011;55800;54.272;18.558;2024-03-02T13:36:38;52.10;;;27.38;;
68806;SDS011;55800;54.272;18.558;2024-03-02T13:39:07;44.17;;;27.35;;
68806;SDS011;55800;54.272;18.558;2024-03-02T13:41:37;44.78;;;27.25;;
68806;SDS011;55800;54.272;18.558;2024-03-02T13:44:07;46.83;;;27.88;;
68806;SDS011;55800;54.272;18.558;2024-03-02T13:46:36;53.47;;;29.20;;
68806;SDS011;55800;54.272;18.558;2024-03-02T13:49:06;46.20;;;28.33;;
68806;SDS011;55800;54.272;18.558;2024-03-02T13:51:37;57.78;;;32.33;;
68806;SDS011;55800;54.272;18.558;2024-03-02T13:54:06;43.70;;;29.13;;
68806;SDS011;55800;54.272;18.558;2024-03-02T13:56:36;48.83;;;29.63;;
68806;SDS011;55800;54.272;18.558;2024-03-02T13:59:07;48.78;;;27.50;;
68806;SDS011;55800;54.272;18.558;2024-03-02T14:01:37;51.72;;;29.45;;
68806;SDS011;55800;54.272;18.558;2024-03-02T14:04:09;51.55;;;30.35;;
68806;SDS011;55800;54.272;18.558;2024-03-02T14:06:40;43.08;;;26.17;;
68806;SDS011;55800;54.272;18.558;2024-03-02T14:09:10;43.90;;;28.60;;
68806;SDS011;55800;54.272;18.558;2024-03-02T14:11:40;45.78;;;29.17;;
68806;SDS011;55800;54.272;18.558;2024-03-02T14:16:39;49.45;;;26.63;;
68806;SDS011;55800;54.272;18.558;2024-03-02T14:21:39;48.38;;;28.95;;
68806;SDS011;55800;54.272;18.558;2024-03-02T14:24:09;48.78;;;30.63;;
68806;SDS011;55800;54.272;18.558;2024-03-02T14:26:39;52.88;;;30.95;;
68806;SDS011;55800;54.272;18.558;2024-03-02T14:29:08;44.33;;;27.65;;
68806;SDS011;55800;54.272;18.558;2024-03-02T14:31:38;47.58;;;27.30;;
68806;SDS011;55800;54.272;18.558;2024-03-02T14:34:08;46.72;;;26.58;;
68806;SDS011;55800;54.272;18.558;2024-03-02T14:36:39;46.58;;;27.48;;
68806;SDS011;55800;54.272;18.558;2024-03-02T14:39:10;44.03;;;27.25;;
68806;SDS011;55800;54.272;18.558;2024-03-02T14:41:40;43.60;;;26.23;;
68806;SDS011;55800;54.272;18.558;2024-03-02T14:44:09;50.70;;;30.15;;
68806;SDS011;55800;54.272;18.558;2024-03-02T14:46:39;44.05;;;29.13;;
68806;SDS011;55800;54.272;18.558;2024-03-02T14:49:11;44.08;;;25.95;;
68806;SDS011;55800;54.272;18.558;2024-03-02T14:51:42;44.28;;;26.40;;
68806;SDS011;55800;54.272;18.558;2024-03-02T14:54:12;45.00;;;26.65;;
68806;SDS011;55800;54.272;18.558;2024-03-02T14:56:42;50.47;;;27.90;;
68806;SDS011;55800;54.272;18.558;2024-03-02T14:59:12;46.03;;;27.85;;
68806;SDS011;55800;54.272;18.558;2024-03-02T15:01:41;53.85;;;28.45;;
68806;SDS011;55800;54.272;18.558;2024-03-02T15:04:12;51.00;;;30.73;;
68806;SDS011;55800;54.272;18.558;2024-03-02T15:06:48;54.97;;;30.98;;
68806;SDS011;55800;54.272;18.558;2024-03-02T15:09:17;47.17;;;29.00;;
68806;SDS011;55800;54.272;18.558;2024-03-02T15:11:47;50.42;;;29.50;;
68806;SDS011;55800;54.272;18.558;2024-03-02T15:14:16;50.33;;;28.98;;
68806;SDS011;55800;54.272;18.558;2024-03-02T15:19:17;50.13;;;29.05;;
68806;SDS011;55800;54.272;18.558;2024-03-02T15:21:48;49.40;;;29.55;;
68806;SDS011;55800;54.272;18.558;2024-03-02T15:24:17;53.25;;;29.55;;
68806;SDS011;55800;54.272;18.558;2024-03-02T15:29:16;43.97;;;25.25;;
68806;SDS011;55800;54.272;18.558;2024-03-02T15:31:46;51.95;;;28.45;;
68806;SDS011;55800;54.272;18.558;2024-03-02T15:34:15;49.80;;;28.92;;
68806;SDS011;55800;54.272;18.558;2024-03-02T15:36:46;48.92;;;29.13;;
68806;SDS011;55800;54.272;18.558;2024-03-02T15:39:16;49.03;;;28.27;;
68806;SDS011;55800;54.272;18.558;2024-03-02T15:41:47;48.58;;;27.25;;
68806;SDS011;55800;54.272;18.558;2024-03-02T15:44:16;50.50;;;27.33;;
68806;SDS011;55800;54.272;18.558;2024-03-02T15:46:45;55.58;;;30.35;;
68806;SDS011;55800;54.272;18.558;2024-03-02T15:49:15;51.13;;;28.38;;
68806;SDS011;55800;54.272;18.558;2024-03-02T15:51:49;47.22;;;28.90;;
68806;SDS011;55800;54.272;18.558;2024-03-02T15:54:18;55.78;;;28.42;;
68806;SDS011;55800;54.272;18.558;2024-03-02T15:59:17;50.40;;;27.73;;
68806;SDS011;55800;54.272;18.558;2024-03-02T16:01:47;52.63;;;29.88;;
68806;SDS011;55800;54.272;18.558;2024-03-02T16:04:17;54.17;;;31.88;;
68806;SDS011;55800;54.272;18.558;2024-03-02T16:06:47;52.78;;;30.60;;
68806;SDS011;55800;54.272;18.558;2024-03-02T16:09:17;57.03;;;30.75;;
68806;SDS011;55800;54.272;18.558;2024-03-02T16:14:16;51.92;;;31.20;;
68806;SDS011;55800;54.272;18.558;2024-03-02T16:16:46;58.47;;;32.58;;
68806;SDS011;55800;54.272;18.558;2024-03-02T16:19:15;51.83;;;30.88;;
68806;SDS011;55800;54.272;18.558;2024-03-02T16:22:00;48.30;;;30.40;;
68806;SDS011;55800;54.272;18.558;2024-03-02T16:24:29;53.17;;;30.90;;
68806;SDS011;55800;54.272;18.558;2024-03-02T16:29:28;49.90;;;28.92;;
68806;SDS011;55800;54.272;18.558;2024-03-02T16:31:58;55.10;;;30.35;;
68806;SDS011;55800;54.272;18.558;2024-03-02T16:34:28;49.28;;;29.40;;